Time;durP1;ratioP1;P1;durP2;ratioP2;P2;SDS_P1;SDS_P2;PMS_P1;PMS_P2;Temp;Humidity;BMP_temperature;BMP_pressure;BME280_temperature;BME280_humidity;BME280_pressure;Samples;Min_cycle;Max_cycle;Signal;HPM_P1;HPM_P2
2023/07/26 00:02:09;;;;;;;5.25;1.75;;;15.70;99.90;;;;;;5084766;28;20638;-57
2023/07/26 00:04:36;;;;;;;6.38;1.60;;;15.70;99.90;;;;;;5088630;28;20280;-57
2023/07/26 00:07:05;;;;;;;5.60;1.50;;;15.70;99.90;;;;;;5071188;28;20270;-60
2023/07/26 00:09:34;;;;;;;3.58;1.92;;;15.70;99.90;;;;;;5059676;28;20193;-59
2023/07/26 00:12:02;;;;;;;9.43;2.03;;;15.70;99.90;;;;;;5084216;28;20236;-60
2023/07/26 00:14:30;;;;;;;5.82;1.50;;;15.70;99.90;;;;;;5083671;28;20232;-60
2023/07/26 00:16:58;;;;;;;2.97;1.75;;;15.70;99.90;;;;;;5076141;28;20668;-60
2023/07/26 00:19:26;;;;;;;4.88;1.77;;;15.70;99.90;;;;;;5088336;28;20271;-60
2023/07/26 00:21:54;;;;;;;3.95;1.60;;;15.70;99.90;;;;;;5078555;28;20200;-58
2023/07/26 00:24:22;;;;;;;3.40;2.00;;;15.70;99.90;;;;;;5081608;28;20205;-57
2023/07/26 00:26:52;;;;;;;7.93;1.88;;;15.70;99.90;;;;;;5085821;28;20739;-58
2023/07/26 00:29:20;;;;;;;7.22;1.83;;;15.70;99.90;;;;;;5075190;28;20256;-57
2023/07/26 00:31:47;;;;;;;8.10;1.38;;;15.70;99.90;;;;;;5086044;28;20635;-57
2023/07/26 00:34:15;;;;;;;6.93;1.55;;;15.70;99.90;;;;;;5081212;28;20204;-62
2023/07/26 00:36:43;;;;;;;9.57;1.52;;;15.70;99.90;;;;;;5090884;28;20751;-59
2023/07/26 00:39:11;;;;;;;5.35;1.45;;;15.70;99.90;;;;;;5074759;28;20646;-59
2023/07/26 00:41:39;;;;;;;3.35;1.50;;;15.70;99.90;;;;;;5087238;28;20236;-60
2023/07/26 00:44:09;;;;;;;4.45;1.40;;;15.60;99.90;;;;;;5080081;28;20235;-61
2023/07/26 00:46:37;;;;;;;1.30;1.20;;;15.60;99.90;;;;;;5078576;28;20260;-58
2023/07/26 00:49:05;;;;;;;3.03;1.20;;;15.60;99.90;;;;;;5079328;28;20226;-58
2023/07/26 00:51:34;;;;;;;10.13;1.88;;;15.50;99.90;;;;;;5083310;28;20239;-61
2023/07/26 00:54:03;;;;;;;2.88;1.42;;;15.50;99.90;;;;;;5086822;28;20192;-60
2023/07/26 00:56:31;;;;;;;8.60;1.67;;;15.50;99.90;;;;;;5071828;28;20577;-61
2023/07/26 00:59:00;;;;;;;4.05;1.45;;;15.50;99.90;;;;;;5087168;28;20600;-59
2023/07/26 01:01:29;;;;;;;5.70;1.48;;;15.40;99.90;;;;;;5074783;28;20243;-60
2023/07/26 01:03:57;;;;;;;7.20;1.75;;;15.40;99.90;;;;;;5084608;28;20259;-59
2023/07/26 01:06:30;;;;;;;5.80;1.50;;;15.40;99.90;;;;;;5081915;28;20200;-59
2023/07/26 01:09:02;;;;;;;6.22;1.70;;;15.30;99.90;;;;;;5076131;28;20264;-60
2023/07/26 01:11:35;;;;;;;3.50;1.02;;;15.30;99.90;;;;;;5087657;28;20684;-62
2023/07/26 01:14:10;;;;;;;3.47;1.17;;;15.30;99.90;;;;;;5079171;28;20196;-59
2023/07/26 01:16:39;;;;;;;5.28;1.60;;;15.20;99.90;;;;;;5078641;28;20277;-57
2023/07/26 01:19:07;;;;;;;4.07;1.48;;;15.20;99.90;;;;;;5082439;28;20217;-60
2023/07/26 01:21:36;;;;;;;5.20;1.40;;;15.10;99.90;;;;;;5095047;28;20311;-60
2023/07/26 01:24:04;;;;;;;2.20;1.52;;;15.10;99.90;;;;;;5086658;28;20241;-58
2023/07/26 01:26:32;;;;;;;2.78;1.50;;;15.10;99.90;;;;;;5086750;28;20889;-57
2023/07/26 01:29:00;;;;;;;2.15;1.10;;;15.00;99.90;;;;;;5083451;28;20263;-59
2023/07/26 01:31:28;;;;;;;5.97;1.55;;;14.90;99.90;;;;;;5087090;28;20693;-58
2023/07/26 01:33:56;;;;;;;4.13;1.20;;;14.90;99.90;;;;;;5087036;28;20280;-58
2023/07/26 01:36:24;;;;;;;4.40;1.35;;;14.80;99.90;;;;;;5094832;28;20744;-57
2023/07/26 01:38:53;;;;;;;5.55;1.25;;;14.80;99.90;;;;;;5086402;28;20260;-61
2023/07/26 01:41:21;;;;;;;5.28;1.50;;;14.80;99.90;;;;;;5088792;28;20575;-62
2023/07/26 01:43:49;;;;;;;3.38;1.42;;;14.70;99.90;;;;;;5082599;28;20639;-62
2023/07/26 01:46:17;;;;;;;3.70;1.13;;;14.70;99.90;;;;;;5086056;28;20205;-63
2023/07/26 01:48:45;;;;;;;4.47;1.23;;;14.70;99.90;;;;;;5082303;28;20229;-61
2023/07/26 01:51:13;;;;;;;3.58;1.40;;;14.70;99.90;;;;;;5083835;28;20270;-59
2023/07/26 01:53:41;;;;;;;5.60;1.08;;;14.70;99.90;;;;;;5090321;28;20228;-59
2023/07/26 01:56:11;;;;;;;3.70;1.25;;;14.60;99.90;;;;;;5079456;28;20247;-60
2023/07/26 01:58:39;;;;;;;3.80;1.55;;;14.60;99.90;;;;;;5087085;28;20269;-58
2023/07/26 02:01:07;;;;;;;2.70;1.25;;;14.50;99.90;;;;;;5084698;28;20197;-60
2023/07/26 02:03:35;;;;;;;4.43;1.30;;;14.50;99.90;;;;;;5095055;28;20280;-59
2023/07/26 02:06:03;;;;;;;9.10;1.33;;;14.50;99.90;;;;;;5087424;28;20548;-60
2023/07/26 02:08:31;;;;;;;1.52;1.00;;;14.50;99.90;;;;;;5086944;28;20748;-60
2023/07/26 02:10:59;;;;;;;3.10;1.20;;;14.40;99.90;;;;;;5086599;28;20200;-60
2023/07/26 02:13:28;;;;;;;2.80;1.00;;;14.30;99.90;;;;;;5084924;28;20260;-60
2023/07/26 02:15:56;;;;;;;3.55;1.20;;;14.30;99.90;;;;;;5082378;28;20254;-60
2023/07/26 02:18:25;;;;;;;6.35;1.20;;;14.20;99.90;;;;;;5083899;28;20299;-58
2023/07/26 02:20:53;;;;;;;2.78;1.05;;;14.20;99.90;;;;;;5082614;28;20291;-56
2023/07/26 02:23:21;;;;;;;2.45;1.00;;;14.20;99.90;;;;;;5087797;28;20303;-58
2023/07/26 02:25:49;;;;;;;4.65;1.00;;;14.20;99.90;;;;;;5085619;28;20205;-57
2023/07/26 02:28:17;;;;;;;1.02;0.80;;;14.10;99.90;;;;;;5093980;28;20252;-58
2023/07/26 02:30:46;;;;;;;2.70;1.02;;;14.10;99.90;;;;;;5079928;28;20647;-57
2023/07/26 02:33:14;;;;;;;2.72;1.08;;;14.10;99.90;;;;;;5090795;28;20619;-58
2023/07/26 02:35:42;;;;;;;5.75;1.33;;;14.00;99.90;;;;;;5078681;28;20271;-58
2023/07/26 02:38:10;;;;;;;2.78;1.17;;;14.00;99.90;;;;;;5088907;28;20305;-58
2023/07/26 02:40:38;;;;;;;4.95;1.25;;;14.00;99.90;;;;;;5079614;28;20612;-58
2023/07/26 02:43:06;;;;;;;5.15;1.08;;;14.00;99.90;;;;;;5093606;28;20196;-61
2023/07/26 02:45:34;;;;;;;5.15;0.90;;;14.00;99.90;;;;;;5077468;28;20188;-58
2023/07/26 02:48:03;;;;;;;5.20;1.17;;;14.00;99.90;;;;;;5083441;28;20316;-58
2023/07/26 02:50:33;;;;;;;1.55;0.90;;;14.00;99.90;;;;;;5093124;28;20211;-58
2023/07/26 02:53:01;;;;;;;2.17;0.90;;;14.00;99.90;;;;;;5093659;28;20235;-58
2023/07/26 02:55:28;;;;;;;4.82;1.20;;;14.00;99.90;;;;;;5076575;28;20279;-57
2023/07/26 02:57:56;;;;;;;3.55;1.02;;;13.90;99.90;;;;;;5086129;28;20635;-56
2023/07/26 03:00:24;;;;;;;2.92;0.95;;;13.90;99.90;;;;;;5084439;28;20232;-56
2023/07/26 03:02:52;;;;;;;2.95;1.15;;;14.00;99.90;;;;;;5084060;28;20234;-58
2023/07/26 03:05:22;;;;;;;3.70;1.08;;;14.00;99.90;;;;;;5083667;28;20201;-57
2023/07/26 03:07:49;;;;;;;6.90;0.85;;;14.00;99.90;;;;;;5078932;28;20256;-60
2023/07/26 03:10:18;;;;;;;5.75;1.20;;;14.00;99.90;;;;;;5083178;28;20247;-57
2023/07/26 03:12:45;;;;;;;1.85;0.85;;;14.00;99.90;;;;;;5086933;28;20208;-58
2023/07/26 03:15:13;;;;;;;3.13;0.93;;;14.00;99.90;;;;;;5076159;28;20225;-58
2023/07/26 03:17:41;;;;;;;4.30;1.23;;;14.10;99.90;;;;;;5088246;28;20225;-56
2023/07/26 03:20:10;;;;;;;1.90;1.00;;;14.10;99.90;;;;;;5081745;28;20706;-58
2023/07/26 03:22:39;;;;;;;3.47;1.30;;;14.10;99.90;;;;;;5080367;28;20201;-56
2023/07/26 03:25:08;;;;;;;2.78;0.90;;;14.10;99.90;;;;;;5089579;28;20280;-58
2023/07/26 03:27:36;;;;;;;2.88;0.95;;;14.10;99.90;;;;;;5076285;28;20296;-56
2023/07/26 03:30:04;;;;;;;4.47;0.90;;;14.10;99.90;;;;;;5085132;28;20275;-58
2023/07/26 03:32:32;;;;;;;6.07;0.90;;;14.20;99.90;;;;;;5084499;28;20581;-60
2023/07/26 03:35:00;;;;;;;6.45;1.20;;;14.20;99.90;;;;;;5076651;28;20201;-56
2023/07/26 03:37:28;;;;;;;3.70;1.02;;;14.20;99.90;;;;;;5088706;28;20217;-58
2023/07/26 03:39:57;;;;;;;3.95;1.13;;;14.20;99.90;;;;;;5079612;28;20251;-57
2023/07/26 03:42:25;;;;;;;3.08;1.00;;;14.20;99.90;;;;;;5080932;28;20197;-59
2023/07/26 03:44:53;;;;;;;4.75;1.02;;;14.20;99.90;;;;;;5087170;28;20232;-59
2023/07/26 03:47:21;;;;;;;1.55;1.00;;;14.20;99.90;;;;;;5075795;28;20233;-58
2023/07/26 03:49:49;;;;;;;1.63;0.80;;;14.30;99.90;;;;;;5078971;28;20312;-61
2023/07/26 03:52:17;;;;;;;2.28;0.80;;;14.20;99.90;;;;;;5082614;28;20289;-57
2023/07/26 03:54:45;;;;;;;4.00;1.02;;;14.30;99.90;;;;;;5085964;28;20281;-58
2023/07/26 03:57:14;;;;;;;6.55;1.15;;;14.30;99.90;;;;;;5075397;28;20646;-58
2023/07/26 03:59:42;;;;;;;2.35;0.88;;;14.30;99.90;;;;;;5087183;28;20201;-58
2023/07/26 04:02:10;;;;;;;3.45;0.82;;;14.30;99.90;;;;;;5080839;28;20224;-58
2023/07/26 04:04:38;;;;;;;1.65;0.90;;;14.30;99.90;;;;;;5079093;28;20197;-58
2023/07/26 04:07:07;;;;;;;2.85;1.25;;;14.20;99.90;;;;;;5088793;28;20255;-58
2023/07/26 04:09:35;;;;;;;5.03;0.90;;;14.20;99.90;;;;;;5060099;28;20323;-56
2023/07/26 04:12:03;;;;;;;2.05;0.80;;;14.30;99.90;;;;;;5084079;28;20225;-56
2023/07/26 04:14:32;;;;;;;3.05;0.70;;;14.30;99.90;;;;;;5083644;28;20291;-56
2023/07/26 04:17:00;;;;;;;3.15;0.80;;;14.30;99.90;;;;;;5075684;28;20232;-58
2023/07/26 04:19:28;;;;;;;1.73;0.80;;;14.20;99.90;;;;;;5088678;28;20221;-57
2023/07/26 04:21:56;;;;;;;1.27;0.93;;;14.30;99.90;;;;;;5078322;28;20197;-58
2023/07/26 04:24:24;;;;;;;6.97;1.20;;;14.20;99.90;;;;;;5082319;28;20594;-61
2023/07/26 04:26:52;;;;;;;3.83;0.90;;;14.30;99.90;;;;;;5081204;28;20209;-60
2023/07/26 04:29:20;;;;;;;2.95;1.10;;;14.20;99.90;;;;;;5080094;28;20255;-59
2023/07/26 04:31:50;;;;;;;1.45;1.02;;;14.30;99.90;;;;;;5083443;28;20203;-59
2023/07/26 04:34:17;;;;;;;2.15;0.80;;;14.30;99.90;;;;;;5091853;28;20647;-57
2023/07/26 04:36:45;;;;;;;4.07;1.30;;;14.30;99.90;;;;;;5077535;28;20233;-58
2023/07/26 04:39:13;;;;;;;2.08;1.00;;;14.30;99.90;;;;;;5080500;28;20221;-56
2023/07/26 04:41:41;;;;;;;2.95;1.13;;;14.30;99.90;;;;;;5085269;28;20649;-58
2023/07/26 04:44:09;;;;;;;5.70;0.93;;;14.30;99.90;;;;;;5087382;28;20193;-59
2023/07/26 04:46:37;;;;;;;2.63;0.90;;;14.40;99.90;;;;;;5091471;28;20236;-58
2023/07/26 04:49:06;;;;;;;4.45;1.30;;;14.40;99.90;;;;;;5074987;28;20225;-58
2023/07/26 04:51:34;;;;;;;4.22;1.35;;;14.40;99.90;;;;;;5071414;28;20289;-57
2023/07/26 04:54:02;;;;;;;2.72;1.25;;;14.40;99.90;;;;;;5079172;28;20236;-58
2023/07/26 04:56:31;;;;;;;1.95;0.80;;;14.60;99.90;;;;;;5068470;28;20236;-58
2023/07/26 04:58:59;;;;;;;4.88;1.10;;;15.10;99.90;;;;;;5082319;28;20704;-60
2023/07/26 05:01:27;;;;;;;2.80;1.02;;;15.70;99.90;;;;;;5074841;28;20708;-61
2023/07/26 05:03:55;;;;;;;1.48;0.75;;;16.20;99.90;;;;;;5084554;28;20247;-60
2023/07/26 05:06:25;;;;;;;2.55;1.20;;;16.50;99.90;;;;;;5081688;28;20215;-61
2023/07/26 05:08:53;;;;;;;2.65;1.00;;;16.70;99.90;;;;;;5076256;28;20231;-59
2023/07/26 05:11:22;;;;;;;3.20;0.90;;;16.90;99.90;;;;;;5087989;28;20200;-60
2023/07/26 05:13:50;;;;;;;2.53;1.20;;;16.90;99.90;;;;;;5077106;28;20228;-62
2023/07/26 05:16:18;;;;;;;2.13;0.98;;;16.80;99.90;;;;;;5081302;28;20289;-59
2023/07/26 05:18:46;;;;;;;2.88;1.10;;;16.70;99.90;;;;;;5084874;28;20224;-59
2023/07/26 05:21:14;;;;;;;2.05;0.88;;;16.70;99.90;;;;;;5073670;28;20254;-61
2023/07/26 05:23:43;;;;;;;4.15;1.08;;;16.60;99.90;;;;;;5085635;28;20632;-61
2023/07/26 05:26:11;;;;;;;2.05;1.10;;;16.40;99.90;;;;;;5079801;28;20227;-59
2023/07/26 05:28:39;;;;;;;1.95;1.23;;;16.40;99.90;;;;;;5077965;28;20259;-60
2023/07/26 05:31:07;;;;;;;1.02;0.80;;;16.40;99.90;;;;;;5087750;28;20200;-56
2023/07/26 05:33:35;;;;;;;1.58;1.08;;;16.30;99.90;;;;;;5075007;28;20196;-57
2023/07/26 05:36:02;;;;;;;4.53;1.20;;;16.30;99.90;;;;;;5083200;28;20228;-57
2023/07/26 05:38:30;;;;;;;2.38;1.15;;;16.30;99.90;;;;;;5082611;28;20314;-56
2023/07/26 05:41:04;;;;;;;2.28;0.98;;;16.30;99.90;;;;;;5075886;28;20200;-58
2023/07/26 05:43:32;;;;;;;0.93;0.90;;;16.40;99.90;;;;;;5074649;28;20203;-56
2023/07/26 05:46:01;;;;;;;2.13;0.90;;;16.40;99.90;;;;;;5083716;28;20193;-56
2023/07/26 05:48:29;;;;;;;2.63;1.10;;;16.40;99.90;;;;;;5074173;28;20253;-55
2023/07/26 05:50:57;;;;;;;3.30;1.10;;;16.40;99.90;;;;;;5086248;28;20646;-55
2023/07/26 05:53:25;;;;;;;2.28;1.35;;;16.30;99.90;;;;;;5074380;28;20279;-54
2023/07/26 05:55:53;;;;;;;6.90;1.60;;;16.30;99.90;;;;;;5084533;28;20644;-55
2023/07/26 05:58:22;;;;;;;3.17;1.17;;;16.20;99.90;;;;;;5081094;28;20759;-55
2023/07/26 06:00:50;;;;;;;2.97;1.20;;;16.10;99.90;;;;;;5076497;28;20251;-55
2023/07/26 06:03:18;;;;;;;3.20;1.17;;;16.00;99.90;;;;;;5087192;28;20246;-56
2023/07/26 06:05:46;;;;;;;2.95;1.10;;;16.00;99.90;;;;;;5078808;28;20686;-55
2023/07/26 06:08:14;;;;;;;2.83;1.10;;;15.90;99.90;;;;;;5082912;28;20229;-55
2023/07/26 06:10:42;;;;;;;3.22;1.55;;;15.90;99.90;;;;;;5084325;28;20319;-56
2023/07/26 06:13:12;;;;;;;2.70;1.42;;;16.00;99.90;;;;;;5082753;28;20700;-56
2023/07/26 06:15:42;;;;;;;2.78;1.40;;;16.00;99.90;;;;;;5066245;28;20196;-56
2023/07/26 06:18:09;;;;;;;2.60;1.13;;;15.90;99.90;;;;;;5090395;28;20307;-58
2023/07/26 06:20:37;;;;;;;6.95;1.63;;;15.90;99.90;;;;;;5076718;28;20639;-57
2023/07/26 06:23:06;;;;;;;5.45;1.60;;;15.80;99.90;;;;;;5086178;28;20759;-60
2023/07/26 06:25:34;;;;;;;3.40;1.23;;;15.80;99.90;;;;;;5077408;28;20208;-56
2023/07/26 06:28:02;;;;;;;2.95;1.02;;;15.80;99.90;;;;;;5085925;28;20256;-56
2023/07/26 06:30:30;;;;;;;6.03;1.30;;;15.80;99.90;;;;;;5086193;28;20746;-58
2023/07/26 06:33:00;;;;;;;4.13;1.13;;;15.80;99.90;;;;;;5094156;28;20216;-57
2023/07/26 06:35:28;;;;;;;4.57;1.40;;;15.80;99.90;;;;;;5075865;28;20192;-55
2023/07/26 06:37:55;;;;;;;3.67;1.50;;;15.80;99.90;;;;;;5086648;28;20657;-56
2023/07/26 06:40:23;;;;;;;2.17;1.13;;;15.80;99.90;;;;;;5084917;28;20287;-56
2023/07/26 06:42:51;;;;;;;2.17;1.50;;;15.80;99.90;;;;;;5079272;28;20570;-56
2023/07/26 06:45:19;;;;;;;5.30;1.30;;;15.80;99.90;;;;;;5090567;28;20255;-57
2023/07/26 06:47:47;;;;;;;2.92;1.10;;;15.80;99.90;;;;;;5073423;28;20683;-56
2023/07/26 06:50:17;;;;;;;3.70;1.40;;;15.80;99.90;;;;;;5073723;28;20688;-56
2023/07/26 06:52:45;;;;;;;4.80;1.65;;;15.80;99.90;;;;;;5087482;28;20636;-55
2023/07/26 06:55:13;;;;;;;4.60;1.70;;;15.90;99.90;;;;;;5076985;28;20288;-57
2023/07/26 06:57:41;;;;;;;2.88;1.40;;;15.90;99.90;;;;;;5089703;28;20255;-57
2023/07/26 07:00:12;;;;;;;5.72;1.42;;;15.90;99.90;;;;;;5081388;28;20258;-58
2023/07/26 07:02:40;;;;;;;6.97;1.83;;;15.80;99.90;;;;;;5082624;28;20200;-55
2023/07/26 07:05:09;;;;;;;4.63;1.17;;;15.90;99.90;;;;;;5075987;28;20212;-54
2023/07/26 07:07:38;;;;;;;15.30;2.10;;;15.80;99.90;;;;;;5082687;28;20252;-57
2023/07/26 07:10:07;;;;;;;1.73;1.50;;;15.90;99.90;;;;;;5075846;28;20286;-56
2023/07/26 07:12:35;;;;;;;4.88;1.73;;;15.80;99.90;;;;;;5081481;28;20676;-56
2023/07/26 07:15:03;;;;;;;3.13;1.70;;;15.80;99.90;;;;;;5080845;28;20771;-55
2023/07/26 07:17:31;;;;;;;2.35;1.45;;;15.80;99.90;;;;;;5074751;28;20284;-57
2023/07/26 07:19:59;;;;;;;5.97;1.60;;;15.90;99.90;;;;;;5077107;28;20288;-54
2023/07/26 07:22:27;;;;;;;8.55;2.10;;;15.90;99.90;;;;;;5085096;28;20315;-56
2023/07/26 07:24:57;;;;;;;6.03;1.55;;;16.00;99.90;;;;;;5079515;28;20305;-56
2023/07/26 07:27:25;;;;;;;2.35;1.45;;;16.10;99.90;;;;;;5084908;28;20256;-55
2023/07/26 07:29:53;;;;;;;4.10;1.48;;;16.20;99.90;;;;;;5079045;28;20232;-58
2023/07/26 07:32:21;;;;;;;3.85;1.50;;;16.30;99.90;;;;;;5082714;28;20578;-54
2023/07/26 07:34:49;;;;;;;2.60;1.40;;;16.40;99.90;;;;;;5078426;28;20201;-57
2023/07/26 07:37:17;;;;;;;6.68;1.48;;;16.50;99.90;;;;;;5078353;28;20340;-56
2023/07/26 07:39:45;;;;;;;2.83;1.35;;;16.70;99.90;;;;;;5077044;28;20231;-56
2023/07/26 07:42:14;;;;;;;5.95;1.27;;;16.80;99.90;;;;;;5092162;28;20751;-56
2023/07/26 07:44:42;;;;;;;2.72;1.40;;;17.00;99.90;;;;;;5090629;28;20200;-55
2023/07/26 07:47:10;;;;;;;3.92;1.70;;;17.20;99.90;;;;;;5075972;28;20648;-55
2023/07/26 07:49:42;;;;;;;2.50;1.45;;;17.30;99.90;;;;;;5088097;28;20805;-55
2023/07/26 07:52:10;;;;;;;4.38;1.30;;;17.40;99.90;;;;;;5080064;28;20252;-54
2023/07/26 07:54:38;;;;;;;3.25;1.40;;;17.40;99.90;;;;;;5080414;28;20649;-56
2023/07/26 07:57:06;;;;;;;4.40;1.15;;;17.40;99.90;;;;;;5072041;28;20680;-57
2023/07/26 07:59:36;;;;;;;5.18;1.90;;;17.50;99.90;;;;;;5087863;28;20717;-55
2023/07/26 08:02:04;;;;;;;4.57;1.25;;;17.40;99.90;;;;;;5079028;28;20727;-55
2023/07/26 08:04:32;;;;;;;2.70;1.13;;;17.40;99.90;;;;;;5081607;28;20233;-55
2023/07/26 08:06:59;;;;;;;24.08;2.40;;;17.50;99.90;;;;;;5087068;28;20204;-58
2023/07/26 08:09:27;;;;;;;5.80;1.42;;;17.70;99.90;;;;;;5089231;28;20671;-58
2023/07/26 08:11:56;;;;;;;4.95;1.52;;;17.80;99.90;;;;;;5077014;28;20259;-59
2023/07/26 08:14:24;;;;;;;5.07;1.92;;;17.80;99.90;;;;;;5081232;28;20193;-58
2023/07/26 08:16:53;;;;;;;3.95;1.58;;;17.80;99.90;;;;;;5085635;28;20292;-59
2023/07/26 08:19:21;;;;;;;19.02;2.03;;;17.80;99.90;;;;;;5091186;28;20223;-59
2023/07/26 08:21:49;;;;;;;10.38;1.60;;;17.80;99.90;;;;;;5077061;28;20196;-61
2023/07/26 08:24:17;;;;;;;4.50;1.35;;;17.90;99.90;;;;;;5083015;28;20205;-60
2023/07/26 08:26:45;;;;;;;7.65;1.98;;;17.90;99.90;;;;;;5084186;28;20196;-61
2023/07/26 08:29:13;;;;;;;4.45;1.65;;;17.80;99.90;;;;;;5075080;28;20272;-60
2023/07/26 08:31:41;;;;;;;3.55;1.52;;;17.80;99.90;;;;;;5059607;28;20323;-60
2023/07/26 08:34:11;;;;;;;2.90;1.20;;;17.80;99.90;;;;;;5079727;28;20197;-60
2023/07/26 08:36:38;;;;;;;3.15;1.63;;;17.90;99.90;;;;;;5080199;28;20200;-61
2023/07/26 08:39:06;;;;;;;3.15;1.60;;;17.90;99.90;;;;;;5087934;28;20309;-59
2023/07/26 08:41:38;;;;;;;4.70;1.55;;;17.90;99.90;;;;;;5075083;28;20200;-59
2023/07/26 08:44:06;;;;;;;1.83;1.42;;;18.00;99.90;;;;;;5084358;28;20201;-60
2023/07/26 08:46:34;;;;;;;3.00;1.35;;;18.20;99.90;;;;;;5082811;28;20200;-61
2023/07/26 08:49:02;;;;;;;3.88;1.45;;;18.30;99.90;;;;;;5076324;28;20603;-61
2023/07/26 08:51:31;;;;;;;4.55;1.42;;;18.30;99.90;;;;;;5088345;28;20220;-61
2023/07/26 08:54:00;;;;;;;6.95;1.73;;;18.30;99.90;;;;;;5077564;28;20723;-61
2023/07/26 08:56:28;;;;;;;6.45;1.50;;;18.50;99.90;;;;;;5081420;28;20236;-62
2023/07/26 08:58:56;;;;;;;2.00;1.08;;;18.70;99.90;;;;;;5085583;28;20219;-61
2023/07/26 09:01:23;;;;;;;2.15;1.33;;;19.00;99.90;;;;;;5074765;28;20300;-61
2023/07/26 09:03:51;;;;;;;2.97;1.48;;;19.20;99.90;;;;;;5086176;28;20203;-61
2023/07/26 09:06:20;;;;;;;5.57;1.52;;;19.30;99.90;;;;;;5080529;28;20213;-61
2023/07/26 09:08:49;;;;;;;4.07;1.35;;;19.50;99.90;;;;;;5078225;28;20315;-60
2023/07/26 09:11:23;;;;;;;1.50;1.40;;;19.80;99.90;;;;;;5083843;28;20252;-60
2023/07/26 09:13:55;;;;;;;2.83;1.40;;;20.00;99.90;;;;;;5083513;28;20196;-59
2023/07/26 09:16:23;;;;;;;2.45;1.52;;;20.20;99.90;;;;;;5085712;28;20200;-60
2023/07/26 09:18:58;;;;;;;5.45;1.50;;;20.20;99.90;;;;;;5085649;28;20361;-61
2023/07/26 09:21:27;;;;;;;2.58;1.50;;;20.20;99.90;;;;;;5074149;28;20200;-60
2023/07/26 09:23:59;;;;;;;5.30;1.85;;;20.00;99.90;;;;;;5080521;28;20199;-59
2023/07/26 09:26:37;;;;;;;1.77;1.58;;;19.90;99.90;;;;;;5082013;28;20205;-60
2023/07/26 09:29:08;;;;;;;6.28;1.20;;;19.70;99.90;;;;;;5081849;28;20584;-61
2023/07/26 09:31:38;;;;;;;5.43;1.60;;;19.50;99.90;;;;;;5087895;28;20242;-60
2023/07/26 09:34:08;;;;;;;3.47;1.65;;;19.50;99.90;;;;;;5070689;28;20197;-61
2023/07/26 09:36:43;;;;;;;1.60;1.50;;;19.60;99.90;;;;;;5082218;28;20200;-61
2023/07/26 09:39:13;;;;;;;6.68;2.38;;;19.60;99.90;;;;;;5074797;28;20228;-61
2023/07/26 09:41:41;;;;;;;3.15;1.70;;;19.60;99.90;;;;;;5055841;28;20202;-60
2023/07/26 09:44:14;;;;;;;3.15;1.33;;;19.80;99.90;;;;;;5077394;28;20726;-61
2023/07/26 09:46:49;;;;;;;3.58;1.45;;;20.10;99.90;;;;;;5074579;28;20606;-60
2023/07/26 09:49:17;;;;;;;1.63;1.45;;;20.40;99.90;;;;;;5074087;28;20266;-60
2023/07/26 09:51:48;;;;;;;4.55;1.92;;;20.50;99.90;;;;;;5071820;28;20300;-61
2023/07/26 09:54:20;;;;;;;3.15;1.65;;;20.50;99.90;;;;;;5072042;28;20326;-61
2023/07/26 09:56:50;;;;;;;2.88;1.38;;;20.60;99.90;;;;;;5072972;28;20205;-62
2023/07/26 09:59:18;;;;;;;2.40;1.75;;;20.50;99.90;;;;;;5090544;28;20220;-61
2023/07/26 10:01:46;;;;;;;1.85;1.55;;;20.60;99.90;;;;;;5078823;28;20680;-61
2023/07/26 10:04:16;;;;;;;1.50;1.40;;;20.60;99.90;;;;;;5083105;28;20247;-62
2023/07/26 10:06:44;;;;;;;4.75;1.98;;;20.60;99.90;;;;;;5072709;28;20661;-62
2023/07/26 10:09:14;;;;;;;2.22;1.80;;;20.50;99.90;;;;;;5081522;28;20282;-61
2023/07/26 10:11:44;;;;;;;1.80;1.67;;;20.40;99.90;;;;;;5071593;28;20217;-62
2023/07/26 10:14:12;;;;;;;3.83;1.75;;;20.30;99.90;;;;;;5071518;28;20695;-60
2023/07/26 10:16:40;;;;;;;4.55;1.77;;;20.30;99.90;;;;;;5070647;28;20287;-61
2023/07/26 10:19:08;;;;;;;6.32;1.80;;;20.40;99.90;;;;;;5076965;28;20224;-61
2023/07/26 10:21:36;;;;;;;4.30;1.90;;;20.50;99.90;;;;;;5085647;28;20246;-61
2023/07/26 10:24:05;;;;;;;2.13;1.52;;;20.70;99.90;;;;;;5083079;28;20205;-61
2023/07/26 10:26:34;;;;;;;3.95;1.50;;;20.60;99.90;;;;;;5074035;28;20240;-61
2023/07/26 10:29:04;;;;;;;3.75;1.60;;;20.50;99.90;;;;;;5086678;28;20266;-61
2023/07/26 10:31:32;;;;;;;2.75;1.42;;;20.40;99.90;;;;;;5071610;28;20601;-61
2023/07/26 10:34:02;;;;;;;3.22;1.60;;;20.40;99.90;;;;;;5068702;28;20295;-61
2023/07/26 10:36:30;;;;;;;3.53;1.70;;;20.80;99.90;;;;;;5070699;28;20270;-60
2023/07/26 10:39:03;;;;;;;4.00;1.63;;;21.50;99.90;;;;;;5067958;28;20242;-61
2023/07/26 10:41:32;;;;;;;3.20;1.92;;;22.00;99.90;;;;;;5069929;28;20285;-61
2023/07/26 10:44:05;;;;;;;2.03;1.67;;;22.50;99.90;;;;;;5064768;28;20221;-61
2023/07/26 10:46:49;;;;;;;7.95;1.65;;;22.70;99.90;;;;;;5079954;28;20205;-60
2023/07/26 10:49:20;;;;;;;2.75;1.50;;;22.70;99.90;;;;;;5070176;28;20595;-61
2023/07/26 10:51:56;;;;;;;2.35;1.65;;;22.90;99.90;;;;;;5079685;28;20208;-60
2023/07/26 10:54:34;;;;;;;1.58;1.48;;;23.20;99.90;;;;;;5083106;28;20287;-60
2023/07/26 10:57:19;;;;;;;2.05;1.88;;;23.20;99.90;;;;;;5068842;28;20667;-60
2023/07/26 10:59:59;;;;;;;1.73;1.60;;;23.30;99.90;;;;;;5079862;28;20731;-61
2023/07/26 11:02:44;;;;;;;2.17;1.98;;;23.30;99.90;;;;;;5080285;28;20246;-61
2023/07/26 11:05:14;;;;;;;3.03;2.05;;;23.30;99.90;;;;;;5075178;28;20205;-59
2023/07/26 11:07:52;;;;;;;2.22;1.70;;;23.40;99.90;;;;;;5073258;28;20263;-61
2023/07/26 11:10:21;;;;;;;2.38;1.52;;;23.20;99.90;;;;;;5077172;28;20713;-61
2023/07/26 11:12:50;;;;;;;2.35;1.77;;;22.90;99.90;;;;;;5074010;28;20224;-60
2023/07/26 11:15:29;;;;;;;2.30;2.20;;;22.60;99.90;;;;;;5073830;28;20208;-61
2023/07/26 11:18:18;;;;;;;2.65;1.83;;;22.40;99.90;;;;;;5071659;28;20231;-59
2023/07/26 11:20:47;;;;;;;6.65;1.85;;;22.70;99.90;;;;;;5074048;28;20201;-59
2023/07/26 11:23:17;;;;;;;3.42;2.00;;;22.80;99.90;;;;;;5082071;28;20607;-60
2023/07/26 11:25:45;;;;;;;3.35;2.00;;;22.70;99.90;;;;;;5074542;28;20228;-61
2023/07/26 11:28:13;;;;;;;5.53;2.28;;;22.60;99.90;;;;;;5079946;28;20281;-60
2023/07/26 11:30:47;;;;;;;2.08;1.88;;;22.70;99.90;;;;;;5078781;28;20283;-60
2023/07/26 11:33:25;;;;;;;1.85;1.73;;;23.20;99.90;;;;;;5072827;28;20271;-61
2023/07/26 11:35:53;;;;;;;2.22;2.13;;;23.50;99.90;;;;;;5078026;28;20242;-60
2023/07/26 11:38:21;;;;;;;3.10;2.00;;;23.40;99.90;;;;;;5071649;28;20622;-61
2023/07/26 11:40:50;;;;;;;4.22;2.13;;;22.60;99.90;;;;;;5070723;28;20307;-60
2023/07/26 11:43:18;;;;;;;7.30;1.98;;;21.70;99.90;;;;;;5073158;28;20205;-60
2023/07/26 11:45:47;;;;;;;3.97;1.90;;;20.80;99.90;;;;;;5079416;28;20283;-61
2023/07/26 11:48:16;;;;;;;2.75;1.35;;;20.00;99.90;;;;;;5082331;28;20652;-60
2023/07/26 11:50:44;;;;;;;3.53;1.50;;;19.60;99.90;;;;;;5071503;28;20196;-59
2023/07/26 11:53:13;;;;;;;4.28;1.70;;;19.40;99.90;;;;;;5076060;28;20252;-60
2023/07/26 11:55:46;;;;;;;2.38;1.90;;;19.30;99.90;;;;;;5064712;28;20200;-60
2023/07/26 11:58:14;;;;;;;3.33;1.80;;;19.30;99.90;;;;;;5079479;28;20303;-60
2023/07/26 12:00:43;;;;;;;2.63;1.58;;;19.30;99.90;;;;;;5069302;28;20204;-60
2023/07/26 12:03:16;;;;;;;1.27;1.13;;;19.50;99.90;;;;;;5063901;28;20200;-60
2023/07/26 12:05:50;;;;;;;0.93;0.80;;;19.80;99.90;;;;;;5077194;28;20281;-60
2023/07/26 12:08:18;;;;;;;1.98;0.90;;;20.30;99.90;;;;;;5079885;28;20219;-59
2023/07/26 12:10:47;;;;;;;3.58;0.90;;;21.20;99.90;;;;;;5072164;28;20232;-61
2023/07/26 12:13:20;;;;;;;0.80;0.80;;;22.10;99.90;;;;;;5083640;28;20255;-61
2023/07/26 12:15:50;;;;;;;2.50;1.10;;;22.80;99.90;;;;;;5069042;28;20671;-60
2023/07/26 12:18:19;;;;;;;0.90;0.85;;;23.40;99.90;;;;;;5071791;28;20229;-60
2023/07/26 12:20:58;;;;;;;1.02;0.70;;;23.90;99.90;;;;;;5071678;28;20632;-60
2023/07/26 12:23:46;;;;;;;1.20;0.95;;;24.30;99.90;;;;;;5079521;28;20211;-61
2023/07/26 12:26:14;;;;;;;0.80;0.80;;;24.90;99.90;;;;;;5069861;28;20667;-60
2023/07/26 12:28:43;;;;;;;2.05;0.90;;;25.20;99.90;;;;;;5082243;28;20216;-62
2023/07/26 12:31:17;;;;;;;3.65;0.90;;;25.50;99.90;;;;;;5074776;28;20292;-60
2023/07/26 12:34:00;;;;;;;0.80;0.80;;;25.50;98.00;;;;;;5066917;28;20221;-60
2023/07/26 12:36:29;;;;;;;3.17;0.90;;;25.30;99.00;;;;;;5069315;28;20223;-61
2023/07/26 12:38:59;;;;;;;2.42;1.08;;;25.40;98.40;;;;;;5069155;28;20251;-60
2023/07/26 12:41:26;;;;;;;1.30;0.90;;;25.60;97.60;;;;;;5072672;28;20200;-60
2023/07/26 12:43:55;;;;;;;1.55;1.00;;;25.80;97.40;;;;;;5070616;28;20249;-59
2023/07/26 12:46:24;;;;;;;1.15;1.05;;;25.90;97.80;;;;;;5075835;28;20653;-60
2023/07/26 12:48:55;;;;;;;1.40;1.00;;;26.00;96.60;;;;;;5079500;28;20224;-60
2023/07/26 12:51:25;;;;;;;1.40;1.00;;;26.20;97.80;;;;;;5074602;28;20209;-58
2023/07/26 12:53:53;;;;;;;1.20;1.10;;;25.80;95.40;;;;;;5088565;28;20304;-61
2023/07/26 12:56:21;;;;;;;0.98;0.98;;;25.20;96.40;;;;;;5078956;28;20609;-61